Time;durP1;ratioP1;P1;durP2;ratioP2;P2;SDS_P1;SDS_P2;PMS_P1;PMS_P2;Temp;Humidity;BMP_temperature;BMP_pressure;BME280_temperature;BME280_humidity;BME280_pressure;Samples;Min_cycle;Max_cycle;Signal;HPM_P1;HPM_P2
2023/01/20 00:01:26;;;;;;;22.52;13.38;;;;;;;0.64;71.38;95958.88;6269006;22;20020;-83
2023/01/20 00:03:56;;;;;;;18.83;13.00;;;;;;;0.63;70.69;95964.13;6273492;22;20011;-83
2023/01/20 00:06:26;;;;;;;17.83;11.18;;;;;;;0.63;71.24;95964.94;6269515;22;20020;-83
2023/01/20 00:08:55;;;;;;;19.23;12.27;;;;;;;0.66;72.23;95961.31;6254727;23;20020;-84
2023/01/20 00:11:24;;;;;;;20.00;12.02;;;;;;;0.71;72.03;95971.97;6251832;23;20387;-83
2023/01/20 00:13:55;;;;;;;17.88;11.35;;;;;;;0.73;72.07;95970.88;6256591;23;20030;-84
2023/01/20 00:16:23;;;;;;;16.38;11.10;;;;;;;0.74;71.96;95977.63;6252713;23;20402;-83
2023/01/20 00:18:52;;;;;;;14.50;9.98;;;;;;;0.73;71.85;95972.66;6252668;23;20075;-86
2023/01/20 00:21:20;;;;;;;13.20;9.73;;;;;;;0.74;71.50;95976.81;6256535;23;20051;-83
2023/01/20 00:23:48;;;;;;;13.20;8.55;;;;;;;0.75;71.06;95981.03;6253697;23;20095;-85
2023/01/20 00:26:18;;;;;;;13.05;8.75;;;;;;;0.75;70.28;95979.28;6217372;22;20027;-77
2023/01/20 00:28:46;;;;;;;14.98;9.23;;;;;;;0.72;70.15;95973.59;6215637;23;20075;-76
2023/01/20 00:31:17;;;;;;;11.13;7.40;;;;;;;0.69;69.63;95979.00;6216647;23;20024;-77
2023/01/20 00:33:45;;;;;;;11.50;8.10;;;;;;;0.72;70.42;95989.81;6216531;23;20020;-77
2023/01/20 00:36:14;;;;;;;10.68;7.18;;;;;;;0.73;70.87;95988.84;6242103;23;20480;-77
2023/01/20 00:38:43;;;;;;;9.75;7.28;;;;;;;0.78;71.15;95996.94;6245795;23;20016;-77
2023/01/20 00:41:11;;;;;;;9.88;7.05;;;;;;;0.80;70.45;95994.25;6246323;23;20063;-76
2023/01/20 00:43:39;;;;;;;11.40;6.60;;;;;;;0.77;69.69;95992.78;6246853;23;20098;-76
2023/01/20 00:46:07;;;;;;;9.63;7.18;;;;;;;0.76;70.54;95995.47;6246111;23;20472;-77
2023/01/20 00:48:36;;;;;;;10.10;7.25;;;;;;;0.79;71.53;95996.03;6245822;23;20020;-76
2023/01/20 00:51:05;;;;;;;11.38;7.75;;;;;;;0.82;71.39;96003.44;6246632;23;20020;-77
2023/01/20 00:53:33;;;;;;;10.48;7.55;;;;;;;0.87;72.14;95995.31;6246261;23;20024;-77
2023/01/20 00:56:00;;;;;;;12.48;8.15;;;;;;;0.89;71.98;96000.34;6246387;23;20051;-76
2023/01/20 00:58:28;;;;;;;11.50;7.80;;;;;;;0.92;72.44;96010.31;6245581;23;20042;-76
2023/01/20 01:00:57;;;;;;;12.45;7.93;;;;;;;0.95;72.77;96010.06;6246731;23;20383;-76
2023/01/20 01:03:26;;;;;;;13.50;7.95;;;;;;;0.97;72.49;96014.13;6246521;23;20020;-77
2023/01/20 01:06:05;;;;;;;15.05;8.88;;;;;;;0.97;72.81;96013.31;6246359;23;20026;-76
2023/01/20 01:08:33;;;;;;;13.30;8.30;;;;;;;0.96;71.66;96020.22;6245116;23;20016;-77
2023/01/20 01:11:01;;;;;;;14.32;8.98;;;;;;;0.94;70.97;96024.66;6246457;23;20026;-76
2023/01/20 01:13:30;;;;;;;12.00;7.88;;;;;;;0.91;70.72;96024.94;6246191;23;20482;-77
2023/01/20 01:15:58;;;;;;;11.23;8.25;;;;;;;0.86;70.26;96026.28;6245906;23;20028;-77
2023/01/20 01:18:25;;;;;;;11.52;8.15;;;;;;;0.81;71.28;96030.06;6245314;23;20023;-77
2023/01/20 01:20:53;;;;;;;11.95;7.95;;;;;;;0.80;71.41;96022.50;6245879;23;20028;-77
2023/01/20 01:23:22;;;;;;;12.43;8.30;;;;;;;0.77;71.55;96028.72;6245954;23;20403;-77
2023/01/20 01:25:49;;;;;;;13.23;9.27;;;;;;;0.75;71.37;96032.38;6245980;23;20020;-76
2023/01/20 01:28:17;;;;;;;12.00;7.80;;;;;;;0.72;71.12;96035.19;6244799;23;20027;-76
2023/01/20 01:30:44;;;;;;;12.00;9.02;;;;;;;0.65;71.38;96034.91;6245600;23;20099;-77
2023/01/20 01:33:12;;;;;;;12.15;8.85;;;;;;;0.57;71.45;96037.38;6246216;23;20403;-77
2023/01/20 01:35:39;;;;;;;13.68;9.00;;;;;;;0.52;71.73;96039.50;6245799;23;20016;-76
2023/01/20 01:38:07;;;;;;;14.23;8.60;;;;;;;0.45;71.89;96039.22;6245149;23;20024;-76
2023/01/20 01:40:35;;;;;;;16.38;10.10;;;;;;;0.40;72.34;96044.75;6245710;23;20016;-76
2023/01/20 01:43:03;;;;;;;14.18;9.60;;;;;;;0.35;72.44;96049.47;6245650;23;20024;-76
2023/01/20 01:45:32;;;;;;;16.10;10.13;;;;;;;0.27;72.88;96039.06;6245555;23;20024;-77
2023/01/20 01:48:07;;;;;;;15.18;10.05;;;;;;;0.24;73.64;96041.91;6244650;23;20459;-76
2023/01/20 01:50:40;;;;;;;17.08;12.50;;;;;;;0.23;73.71;96037.69;6246156;23;20020;-77
2023/01/20 01:53:09;;;;;;;15.40;11.00;;;;;;;0.21;73.84;96042.13;6246238;23;20023;-77
2023/01/20 01:55:43;;;;;;;20.45;13.13;;;;;;;0.22;74.48;96043.78;6246050;23;20099;-77
2023/01/20 01:58:15;;;;;;;16.20;11.75;;;;;;;0.25;74.05;96040.94;6245274;23;20103;-77
2023/01/20 02:00:43;;;;;;;16.33;10.95;;;;;;;0.29;74.72;96044.06;6246074;23;20021;-77
2023/01/20 02:03:11;;;;;;;17.45;11.10;;;;;;;0.34;74.78;96039.34;6246027;23;20403;-76
2023/01/20 02:05:40;;;;;;;17.63;11.38;;;;;;;0.40;75.16;96043.94;6245383;23;20471;-76
2023/01/20 02:08:08;;;;;;;15.40;10.73;;;;;;;0.48;75.26;96048.41;6244923;23;20020;-76
2023/01/20 02:10:36;;;;;;;17.40;11.75;;;;;;;0.49;74.75;96057.75;6245628;23;20024;-76
2023/01/20 02:13:05;;;;;;;15.93;11.63;;;;;;;0.47;74.92;96047.59;6246117;23;20027;-76
2023/01/20 02:15:41;;;;;;;16.13;11.55;;;;;;;0.50;74.97;96056.78;6245805;23;20020;-76
2023/01/20 02:18:24;;;;;;;15.40;9.77;;;;;;;0.53;74.82;96051.41;6245163;23;20020;-77
2023/01/20 02:21:03;;;;;;;;;;;;;;;0.62;75.23;96055.72;6246601;23;20026;-77
2023/01/20 02:23:57;;;;;;;18.63;12.23;;;;;;;0.56;74.01;96056.25;6245401;23;19986;-76
2023/01/20 02:26:37;;;;;;;;;;;;;;;0.57;75.34;96057.91;6245894;23;20103;-77
2023/01/20 02:29:44;;;;;;;15.40;11.13;;;;;;;0.55;75.48;96060.59;6244588;23;19915;-77
2023/01/20 02:32:25;;;;;;;16.67;11.27;;;;;;;0.61;75.52;96064.34;6203261;23;20027;-76
2023/01/20 02:34:58;;;;;;;14.85;11.32;;;;;;;0.66;75.48;96058.84;6245763;23;20051;-76
2023/01/20 02:37:28;;;;;;;15.80;11.45;;;;;;;0.67;74.94;96058.69;6246123;23;20027;-77
2023/01/20 02:40:12;;;;;;;16.30;12.15;;;;;;;0.65;74.89;96058.03;6244911;23;20348;-77
2023/01/20 02:42:45;;;;;;;18.17;13.55;;;;;;;0.59;74.34;96061.94;6245373;23;20081;-76
2023/01/20 02:45:21;;;;;;;18.27;13.07;;;;;;;0.56;75.09;96066.53;6245333;23;20020;-76
2023/01/20 02:47:57;;;;;;;17.42;13.13;;;;;;;0.55;75.19;96065.72;6244574;23;20024;-76
2023/01/20 02:50:31;;;;;;;18.05;13.43;;;;;;;0.55;74.43;96064.91;6245112;23;20020;-77
2023/01/20 02:53:02;;;;;;;20.10;14.23;;;;;;;0.52;74.38;96068.53;6245616;23;20028;-76
2023/01/20 02:55:35;;;;;;;15.93;12.00;;;;;;;0.52;74.58;96071.09;6245805;23;20031;-77
2023/01/20 02:58:07;;;;;;;16.45;13.13;;;;;;;0.52;74.06;96070.28;6244813;23;20031;-76
2023/01/20 03:00:39;;;;;;;17.42;13.02;;;;;;;0.54;73.75;96068.41;6245270;23;20020;-76
2023/01/20 03:03:15;;;;;;;17.98;12.90;;;;;;;0.54;74.16;96070.97;6245484;23;20020;-77
2023/01/20 03:05:49;;;;;;;16.35;12.52;;;;;;;0.54;75.01;96064.09;6245341;23;20020;-76
2023/01/20 03:08:18;;;;;;;15.75;11.57;;;;;;;0.56;74.28;96077.59;6244347;23;20066;-77
2023/01/20 03:10:47;;;;;;;17.83;11.77;;;;;;;0.54;74.45;96076.91;6244823;23;20494;-76
2023/01/20 03:13:19;;;;;;;17.33;11.88;;;;;;;0.55;74.93;96080.31;6245207;23;20389;-76
2023/01/20 03:15:56;;;;;;;17.50;12.00;;;;;;;0.58;75.22;96074.91;6245399;23;20026;-76
2023/01/20 03:18:27;;;;;;;15.98;12.18;;;;;;;0.60;75.49;96075.59;6244605;23;20229;-76
2023/01/20 03:20:56;;;;;;;15.88;12.18;;;;;;;0.65;75.72;96078.56;6245311;23;20020;-76
2023/01/20 03:23:25;;;;;;;17.02;12.73;;;;;;;0.68;76.17;96078.31;6244909;23;20063;-76
2023/01/20 03:25:53;;;;;;;15.80;11.63;;;;;;;0.73;75.93;96078.72;6243978;23;20107;-76
2023/01/20 03:28:21;;;;;;;22.67;13.68;;;;;;;0.76;76.10;96078.44;6243137;23;20020;-77
2023/01/20 03:30:49;;;;;;;23.33;15.75;;;;;;;0.78;75.74;96083.44;6243947;23;20024;-76
2023/01/20 03:33:18;;;;;;;21.40;15.60;;;;;;;0.76;75.75;96081.00;6243307;23;20055;-77
2023/01/20 03:35:47;;;;;;;22.20;15.52;;;;;;;0.74;75.52;96080.31;6243792;23;20016;-76
2023/01/20 03:38:15;;;;;;;19.52;14.93;;;;;;;0.76;76.10;96081.00;6242671;23;20020;-77
2023/01/20 03:40:49;;;;;;;20.67;16.10;;;;;;;0.74;75.71;96080.31;6243790;23;20412;-76
2023/01/20 03:43:26;;;;;;;19.77;15.43;;;;;;;0.73;75.19;96081.28;6243970;23;20027;-76
2023/01/20 03:46:00;;;;;;;19.45;15.18;;;;;;;0.76;75.37;96090.47;6243789;23;20020;-77
2023/01/20 03:48:35;;;;;;;20.90;15.75;;;;;;;0.77;75.93;96090.34;6242804;23;20024;-76
2023/01/20 03:51:10;;;;;;;23.90;15.48;;;;;;;0.77;76.33;96090.34;6243291;23;20024;-77
2023/01/20 03:53:44;;;;;;;24.33;17.05;;;;;;;0.78;75.95;96091.16;6243329;23;20024;-77
2023/01/20 03:56:16;;;;;;;22.38;15.48;;;;;;;0.80;76.56;96094.38;6243607;23;20483;-76
2023/01/20 03:58:48;;;;;;;22.43;15.87;;;;;;;0.84;76.47;96095.75;6242373;23;20012;-76
2023/01/20 04:01:19;;;;;;;20.13;15.95;;;;;;;0.85;76.41;96092.22;6243370;23;20737;-77
2023/01/20 04:03:49;;;;;;;21.05;16.00;;;;;;;0.82;75.74;96097.63;6243910;23;20338;-77
2023/01/20 04:06:21;;;;;;;22.42;15.80;;;;;;;0.79;76.37;96098.72;6243602;23;20020;-76
2023/01/20 04:08:55;;;;;;;21.33;15.70;;;;;;;0.80;76.94;96102.91;6242895;23;20027;-77
2023/01/20 04:11:23;;;;;;;20.83;15.43;;;;;;;0.84;76.56;96102.66;6243668;23;20024;-77
2023/01/20 04:13:51;;;;;;;23.98;17.85;;;;;;;0.84;76.29;96105.22;6243621;23;20024;-77
2023/01/20 04:16:19;;;;;;;18.98;15.18;;;;;;;0.82;76.40;96105.34;6245707;23;20020;-77
2023/01/20 04:18:49;;;;;;;24.38;17.85;;;;;;;0.81;75.90;96103.72;6246542;23;20114;-76
2023/01/20 04:21:24;;;;;;;23.65;17.13;;;;;;;0.78;76.93;96112.50;6246140;23;20030;-76
2023/01/20 04:23:57;;;;;;;23.98;17.15;;;;;;;0.77;76.22;96116.00;6244382;23;20032;-77
2023/01/20 04:26:25;;;;;;;26.38;16.83;;;;;;;0.75;75.96;96115.31;5397240;23;18243060;-76
2023/01/20 04:28:52;;;;;;;22.92;16.15;;;;;;;0.71;75.61;96119.09;6244111;23;20023;-77
2023/01/20 04:31:20;;;;;;;21.77;17.05;;;;;;;0.68;75.44;96121.94;6245207;23;20364;-76
2023/01/20 04:33:57;;;;;;;24.38;18.05;;;;;;;0.66;75.89;96120.47;6245136;23;20024;-76
2023/01/20 04:36:26;;;;;;;22.45;17.70;;;;;;;0.68;76.72;96121.94;6245197;23;20020;-76
2023/01/20 04:38:53;;;;;;;26.30;17.98;;;;;;;0.67;76.24;96127.19;6244034;23;20345;-77
2023/01/20 04:41:20;;;;;;;22.48;16.63;;;;;;;0.63;76.08;96129.22;6244737;23;20472;-77
2023/01/20 04:43:48;;;;;;;26.25;19.02;;;;;;;0.63;75.99;96126.63;6245116;23;20340;-77
2023/01/20 04:46:16;;;;;;;23.67;17.77;;;;;;;0.64;75.88;96135.19;6244924;23;20347;-76
2023/01/20 04:48:44;;;;;;;25.00;17.33;;;;;;;0.66;75.55;96131.53;6244043;23;20059;-77
2023/01/20 04:51:12;;;;;;;25.50;18.08;;;;;;;0.69;75.16;96136.38;6244769;23;20020;-76
2023/01/20 04:53:41;;;;;;;24.25;18.05;;;;;;;0.69;75.35;96138.97;6245543;23;20024;-76
2023/01/20 04:56:11;;;;;;;25.35;17.75;;;;;;;0.72;76.41;96148.97;6244850;23;20020;-77
2023/01/20 04:58:39;;;;;;;26.90;17.95;;;;;;;0.76;76.44;96149.50;6252412;23;20051;-77
2023/01/20 05:01:07;;;;;;;24.52;18.00;;;;;;;0.77;76.45;96151.16;6260500;23;20027;-77
2023/01/20 05:03:34;;;;;;;26.52;17.65;;;;;;;0.76;76.73;96160.59;6254560;23;20054;-77
2023/01/20 05:06:02;;;;;;;25.00;17.63;;;;;;;0.73;75.87;96158.28;6246124;23;20367;-76
2023/01/20 05:08:29;;;;;;;27.55;17.00;;;;;;;0.74;75.80;96161.66;6245768;23;20031;-76
2023/01/20 05:10:58;;;;;;;23.77;17.60;;;;;;;0.76;76.38;96172.63;6246490;23;20056;-76
2023/01/20 05:13:26;;;;;;;26.52;18.20;;;;;;;0.77;76.08;96176.81;6246636;23;20031;-77
2023/01/20 05:15:53;;;;;;;28.20;18.88;;;;;;;0.77;76.40;96172.50;6246061;23;20502;-76
2023/01/20 05:18:21;;;;;;;26.75;18.77;;;;;;;0.81;76.74;96184.13;6245605;23;20023;-76
2023/01/20 05:20:50;;;;;;;25.90;17.67;;;;;;;0.81;76.33;96188.47;6246593;23;20016;-76
2023/01/20 05:23:17;;;;;;;26.13;18.45;;;;;;;0.82;76.43;96190.88;6246254;23;20139;-76
2023/01/20 05:25:49;;;;;;;24.13;17.73;;;;;;;0.85;77.38;96194.94;6245843;23;20035;-77
2023/01/20 05:28:18;;;;;;;26.67;18.13;;;;;;;0.86;76.45;96199.13;6245597;23;20087;-76
2023/01/20 05:30:47;;;;;;;26.80;20.13;;;;;;;0.84;75.45;96193.31;6245853;23;20099;-76
2023/01/20 05:33:15;;;;;;;24.83;18.17;;;;;;;0.83;76.05;96201.94;6246113;23;20095;-77
2023/01/20 05:35:42;;;;;;;28.92;18.90;;;;;;;0.81;75.68;96202.09;6246615;23;20091;-77
2023/01/20 05:38:10;;;;;;;25.58;18.50;;;;;;;0.80;75.27;96204.78;6245035;23;20024;-77
2023/01/20 05:40:37;;;;;;;27.33;17.92;;;;;;;0.79;75.88;96209.13;6245895;23;20040;-77
2023/01/20 05:43:05;;;;;;;26.40;18.13;;;;;;;0.78;75.93;96209.25;6246354;23;20119;-77
2023/01/20 05:45:33;;;;;;;25.17;17.30;;;;;;;0.77;76.75;96212.75;6245667;23;20020;-76
2023/01/20 05:48:02;;;;;;;28.95;18.33;;;;;;;0.81;76.34;96217.50;6244567;23;20082;-76
2023/01/20 05:50:29;;;;;;;30.77;19.75;;;;;;;0.80;75.89;96223.56;6245923;23;20020;-77
2023/01/20 05:52:59;;;;;;;28.38;18.75;;;;;;;0.77;76.73;96221.28;6246046;23;20029;-76
2023/01/20 05:55:26;;;;;;;28.80;18.88;;;;;;;0.77;76.40;96228.16;6245231;23;20027;-77
2023/01/20 05:57:54;;;;;;;26.80;19.15;;;;;;;0.73;76.78;96230.19;6244821;23;20024;-77
2023/01/20 06:00:22;;;;;;;28.95;20.35;;;;;;;0.74;77.22;96234.34;6245845;23;20020;-77
2023/01/20 06:02:51;;;;;;;29.70;19.52;;;;;;;0.75;76.69;96233.44;6245677;23;20020;-76
2023/01/20 06:05:18;;;;;;;28.35;18.77;;;;;;;0.77;76.83;96246.16;6245813;23;20156;-77
2023/01/20 06:07:48;;;;;;;32.92;20.38;;;;;;;0.78;77.03;96250.31;6244928;23;20044;-77
2023/01/20 06:10:16;;;;;;;28.13;19.42;;;;;;;0.77;76.43;96251.28;6242354;23;20020;-78
2023/01/20 06:12:44;;;;;;;27.90;18.00;;;;;;;0.72;76.58;96251.66;6245720;23;20035;-77
2023/01/20 06:15:11;;;;;;;31.77;19.83;;;;;;;0.75;77.04;96251.41;6246111;23;20063;-77
2023/01/20 06:17:39;;;;;;;27.58;18.27;;;;;;;0.80;77.63;96256.94;6244884;23;20480;-77
2023/01/20 06:20:10;;;;;;;31.65;20.08;;;;;;;0.81;77.04;96256.03;6244343;23;20500;-76
2023/01/20 06:22:38;;;;;;;29.50;19.38;;;;;;;0.82;77.23;96246.56;6219402;23;20020;-78
2023/01/20 06:25:06;;;;;;;35.22;20.05;;;;;;;0.83;76.84;96258.44;6240833;22;20163;-80
2023/01/20 06:27:33;;;;;;;29.20;19.55;;;;;;;0.82;77.29;96256.81;6240527;22;20000;-81
2023/01/20 06:30:09;;;;;;;32.28;21.00;;;;;;;0.80;77.59;96258.72;6240096;23;20211;-81
2023/01/20 06:32:39;;;;;;;39.30;22.10;;;;;;;0.76;77.32;96258.16;6236441;23;20023;-81
2023/01/20 06:35:09;;;;;;;36.17;21.10;;;;;;;0.75;77.47;96266.81;6236814;23;20018;-81
2023/01/20 06:37:37;;;;;;;32.30;21.05;;;;;;;0.78;77.20;96266.53;6249744;23;20027;-81
2023/01/20 06:40:06;;;;;;;32.38;18.80;;;;;;;0.81;76.68;96271.44;6248055;23;20016;-81
2023/01/20 06:42:34;;;;;;;32.47;19.15;;;;;;;0.84;76.86;96280.63;6250487;23;20016;-81
2023/01/20 06:45:01;;;;;;;29.58;19.05;;;;;;;0.83;76.74;96276.41;6247772;23;20352;-80
2023/01/20 06:47:29;;;;;;;28.50;17.95;;;;;;;0.81;77.03;96286.84;6247418;23;20020;-80
2023/01/20 06:49:57;;;;;;;29.63;18.55;;;;;;;0.84;77.41;96279.81;6246684;23;20020;-81
2023/01/20 06:52:26;;;;;;;34.00;20.13;;;;;;;0.87;77.63;96282.13;6248129;23;20020;-81
2023/01/20 06:54:54;;;;;;;33.05;18.77;;;;;;;0.89;77.72;96288.75;6247029;23;20016;-80
2023/01/20 06:57:21;;;;;;;30.90;18.17;;;;;;;0.91;77.76;96294.56;6246782;23;20020;-79
2023/01/20 06:59:52;;;;;;;31.10;19.60;;;;;;;0.91;77.28;96293.75;6246058;23;20013;-79
2023/01/20 07:02:27;;;;;;;40.95;22.42;;;;;;;0.89;77.42;96298.22;6251161;23;20036;-81
2023/01/20 07:05:07;;;;;;;31.05;20.73;;;;;;;0.82;77.18;96306.41;6248833;23;20082;-82
2023/01/20 07:11:20;;;;;;;29.90;18.67;;;;;;;0.78;77.64;96317.88;6256061;23;20026;-82
2023/01/20 07:13:50;;;;;;;;;;;;;;;0.79;77.73;96322.09;6254956;23;20032;-82
2023/01/20 07:16:39;;;;;;;28.13;18.45;;;;;;;0.74;77.17;96324.22;6257075;23;20354;-81
2023/01/20 07:19:14;;;;;;;31.67;19.95;;;;;;;0.71;77.65;96332.19;6251688;23;20020;-82
2023/01/20 07:21:52;;;;;;;29.27;18.50;;;;;;;0.73;77.75;96340.56;6257634;23;20063;-82
2023/01/20 07:24:52;;;;;;;31.65;18.35;;;;;;;0.72;78.10;96343.25;6253273;22;20004;-87
2023/01/20 07:27:29;;;;;;;33.55;19.17;;;;;;;0.72;77.93;96344.09;6209962;23;20001;-86
2023/01/20 07:29:57;;;;;;;29.92;18.35;;;;;;;0.75;77.73;96343.81;6194143;23;20021;-83
2023/01/20 07:32:25;;;;;;;34.05;19.73;;;;;;;0.76;77.56;96344.63;6192587;23;20017;-85
2023/01/20 07:34:56;;;;;;;31.05;20.25;;;;;;;0.74;77.71;96347.31;6198258;23;20396;-85
2023/01/20 07:37:34;;;;;;;30.67;17.77;;;;;;;0.72;77.46;96353.53;6206272;23;20051;-85
2023/01/20 07:40:12;;;;;;;30.40;19.50;;;;;;;0.70;77.86;96356.25;6208068;23;20009;-85
2023/01/20 07:42:41;;;;;;;32.70;18.67;;;;;;;0.72;78.13;96364.63;6197225;23;20025;-83
2023/01/20 07:45:10;;;;;;;31.02;19.25;;;;;;;0.76;78.05;96360.84;6197746;23;20072;-85
2023/01/20 07:47:41;;;;;;;30.38;18.90;;;;;;;0.81;78.29;96361.28;6208247;23;20048;-87
2023/01/20 07:50:13;;;;;;;27.88;17.00;;;;;;;0.85;77.32;96368.72;6212258;23;20009;-88
2023/01/20 07:52:42;;;;;;;28.85;18.20;;;;;;;0.85;76.94;96373.88;6209617;23;20020;-87
2023/01/20 07:55:09;;;;;;;28.45;18.10;;;;;;;0.85;77.22;96366.97;6212575;23;20032;-86
2023/01/20 07:57:37;;;;;;;28.30;18.25;;;;;;;0.89;77.31;96370.09;6211297;23;20052;-86
2023/01/20 08:00:08;;;;;;;27.77;18.00;;;;;;;0.92;76.83;96380.13;6210232;23;20029;-88
2023/01/20 08:02:37;;;;;;;34.58;19.60;;;;;;;0.98;77.41;96382.19;6212353;23;20036;-88
2023/01/20 08:05:10;;;;;;;27.58;18.05;;;;;;;1.01;76.27;96382.75;6212446;23;20016;-87
2023/01/20 08:07:38;;;;;;;26.98;17.70;;;;;;;1.03;76.41;96383.44;6212475;23;20009;-88
2023/01/20 08:10:07;;;;;;;30.40;18.40;;;;;;;1.06;77.07;96395.22;6206541;23;20048;-84
2023/01/20 08:12:36;;;;;;;27.40;17.38;;;;;;;1.09;77.43;96386.44;6191559;23;20108;-84
2023/01/20 08:15:06;;;;;;;25.65;16.42;;;;;;;1.11;77.41;96389.69;6191027;23;20013;-85
2023/01/20 08:17:34;;;;;;;26.67;16.58;;;;;;;1.09;76.97;96397.50;6194942;23;20028;-85
2023/01/20 08:20:02;;;;;;;28.23;16.73;;;;;;;1.08;77.29;96393.31;6196970;23;20021;-85
2023/01/20 08:22:29;;;;;;;30.83;18.80;;;;;;;1.09;77.28;96397.50;6196025;23;20078;-85
2023/01/20 08:24:57;;;;;;;27.45;18.02;;;;;;;1.09;77.25;96394.94;6198761;23;20017;-85
2023/01/20 08:27:25;;;;;;;27.23;17.23;;;;;;;1.10;77.07;96404.28;6199324;23;20029;-85
2023/01/20 08:29:54;;;;;;;28.02;17.75;;;;;;;1.12;77.44;96404.97;6199615;23;20024;-83
2023/01/20 08:32:23;;;;;;;29.92;19.35;;;;;;;1.12;77.22;96407.53;6198411;23;20065;-84
2023/01/20 08:34:51;;;;;;;31.90;19.73;;;;;;;1.12;76.63;96411.88;6196206;23;20092;-85
2023/01/20 08:37:19;;;;;;;32.75;20.83;;;;;;;1.09;75.94;96412.13;6195995;23;20071;-84
2023/01/20 08:39:47;;;;;;;33.40;21.40;;;;;;;1.00;76.47;96414.50;6195324;23;20093;-84
2023/01/20 08:42:15;;;;;;;38.47;24.27;;;;;;;0.98;76.95;96413.84;6198582;23;20016;-84
2023/01/20 08:44:43;;;;;;;40.47;23.50;;;;;;;0.99;77.22;96424.91;6198492;23;20021;-84
2023/01/20 08:47:10;;;;;;;38.40;23.63;;;;;;;1.02;77.63;96416.94;6197068;23;20483;-84
2023/01/20 08:49:40;;;;;;;38.30;23.50;;;;;;;1.02;76.61;96429.78;6198582;23;20021;-84
2023/01/20 08:52:08;;;;;;;36.40;23.85;;;;;;;1.05;77.15;96424.41;6196276;23;20027;-84
2023/01/20 08:54:38;;;;;;;33.58;21.35;;;;;;;1.11;77.45;96434.16;6196235;23;20021;-84
2023/01/20 08:57:06;;;;;;;38.67;24.15;;;;;;;1.14;77.29;96439.06;6199936;23;20021;-85
2023/01/20 08:59:34;;;;;;;30.55;21.15;;;;;;;1.20;77.55;96441.13;6198898;23;20043;-84
2023/01/20 09:02:02;;;;;;;30.15;19.92;;;;;;;1.24;77.34;96439.09;6198102;23;20025;-84
2023/01/20 09:04:30;;;;;;;31.33;20.55;;;;;;;1.30;77.39;96437.78;6204604;23;20044;-87
2023/01/20 09:07:00;;;;;;;33.33;20.83;;;;;;;1.33;77.33;96446.03;6201737;23;20076;-84
2023/01/20 09:09:28;;;;;;;34.53;20.75;;;;;;;1.35;76.54;96441.59;6199679;23;20040;-84
2023/01/20 09:11:56;;;;;;;32.60;20.25;;;;;;;1.34;76.15;96457.16;6199341;23;20353;-84
2023/01/20 09:14:25;;;;;;;31.60;19.63;;;;;;;1.34;76.14;96452.00;6201066;23;20027;-84
2023/01/20 09:16:53;;;;;;;26.52;18.60;;;;;;;1.37;76.50;96451.75;6201439;23;20017;-84
2023/01/20 09:19:21;;;;;;;28.30;17.60;;;;;;;1.39;76.68;96457.56;6199266;23;20040;-84
2023/01/20 09:21:48;;;;;;;30.75;19.25;;;;;;;1.36;76.49;96461.22;6194581;23;20019;-84
2023/01/20 09:24:17;;;;;;;25.58;17.42;;;;;;;1.36;76.69;96458.66;6192813;23;20386;-84
2023/01/20 09:26:45;;;;;;;34.47;18.40;;;;;;;1.37;76.41;96460.25;6192021;23;20036;-83
2023/01/20 09:29:15;;;;;;;29.60;18.02;;;;;;;1.37;75.87;96467.97;6191765;23;20017;-83
2023/01/20 09:31:44;;;;;;;26.23;17.92;;;;;;;1.35;75.84;96469.84;6193283;23;20024;-84
2023/01/20 09:34:13;;;;;;;26.10;16.15;;;;;;;1.31;75.73;96467.66;6195980;23;20353;-81
2023/01/20 09:36:41;;;;;;;28.08;18.15;;;;;;;1.31;76.41;96476.22;6206506;23;20080;-84
2023/01/20 09:44:50;;;;;;;33.63;20.92;;;;;;;1.42;76.22;96486.41;6199054;23;20232;-84
2023/01/20 09:47:38;;;;;;;31.45;20.00;;;;;;;1.44;77.62;96484.53;6202124;23;20031;-84
2023/01/20 09:53:06;;;;;;;14.57;9.85;;;;;;;1.41;75.65;96489.09;6200524;23;20013;-85
2023/01/20 09:55:42;;;;;;;13.15;9.25;;;;;;;1.39;75.88;96485.84;6202826;23;20045;-86
2023/01/20 09:58:18;;;;;;;12.80;8.40;;;;;;;1.40;76.66;96490.88;6206670;23;20082;-83
2023/01/20 10:00:49;;;;;;;12.30;8.57;;;;;;;1.48;76.29;96492.78;6209014;23;20040;-86
2023/01/20 10:03:22;;;;;;;15.93;9.52;;;;;;;1.53;75.17;96493.25;6190499;23;20032;-83
2023/01/20 10:05:55;;;;;;;12.85;8.70;;;;;;;1.58;74.55;96492.84;6185975;23;21036;-82
2023/01/20 10:08:26;;;;;;;13.95;9.18;;;;;;;1.59;74.09;96497.84;6188287;23;20017;-82
2023/01/20 10:11:00;;;;;;;13.15;8.93;;;;;;;1.61;73.58;96500.28;6192083;23;20031;-83
2023/01/20 10:13:34;;;;;;;12.77;7.93;;;;;;;1.61;73.02;96501.09;6191242;23;20040;-83
2023/01/20 10:16:08;;;;;;;12.00;7.93;;;;;;;1.64;73.78;96495.72;6191661;23;20100;-83
2023/01/20 10:18:42;;;;;;;12.93;9.57;;;;;;;1.65;73.08;96497.34;6189136;23;20040;-82
2023/01/20 10:21:17;;;;;;;11.43;7.68;;;;;;;1.62;72.94;96497.59;6189627;23;20043;-83
2023/01/20 10:23:51;;;;;;;10.80;7.47;;;;;;;1.61;73.91;96501.09;6190277;23;20067;-82
2023/01/20 10:26:25;;;;;;;10.38;7.90;;;;;;;1.62;74.22;96501.94;6189830;23;20023;-82
2023/01/20 10:28:59;;;;;;;9.30;6.93;;;;;;;1.65;74.56;96512.75;6189346;23;20048;-82
2023/01/20 10:31:28;;;;;;;13.15;8.55;;;;;;;1.67;73.27;96510.06;6189923;23;20109;-82
2023/01/20 10:34:01;;;;;;;10.15;7.68;;;;;;;1.61;72.71;96511.38;6187052;23;20024;-82
2023/01/20 10:36:29;;;;;;;;;;;;;;;1.67;72.60;96509.25;6192198;23;20024;-81
2023/01/20 10:39:02;;;;;;;9.57;6.88;;;;;;;1.63;72.54;96504.34;6187326;23;20415;-81
2023/01/20 10:41:38;;;;;;;11.07;7.70;;;;;;;1.60;72.64;96504.63;6188938;23;20017;-81
2023/01/20 10:44:11;;;;;;;9.57;6.75;;;;;;;1.62;72.43;96513.03;6193617;23;20024;-82
2023/01/20 10:46:53;;;;;;;11.82;6.93;;;;;;;1.70;74.09;96509.00;6190361;23;20017;-83
2023/01/20 10:49:55;;;;;;;10.90;7.13;;;;;;;1.74;71.95;96503.47;6187594;23;20031;-81
2023/01/20 10:52:45;;;;;;;11.00;7.72;;;;;;;1.76;71.33;96511.06;6188714;23;20055;-81
2023/01/20 10:55:27;;;;;;;8.07;6.47;;;;;;;1.79;71.38;96513.34;6188134;23;20017;-80
2023/01/20 10:58:01;;;;;;;8.90;6.85;;;;;;;1.82;72.92;96518.25;6186591;23;20104;-82
2023/01/20 11:00:31;;;;;;;9.82;6.60;;;;;;;1.87;71.74;96515.28;6200264;23;20057;-86
2023/01/20 11:03:04;;;;;;;8.57;6.38;;;;;;;1.94;72.35;96516.41;6205598;23;20005;-81
2023/01/20 11:05:37;;;;;;;9.38;6.70;;;;;;;2.04;72.01;96517.25;6202266;23;20036;-83
2023/01/20 11:08:14;;;;;;;11.02;7.25;;;;;;;2.07;70.41;96516.97;6191481;23;20484;-81
2023/01/20 11:10:42;;;;;;;9.55;7.13;;;;;;;2.12;71.30;96521.72;6191315;23;20025;-82
2023/01/20 11:13:11;;;;;;;9.80;6.55;;;;;;;2.16;71.21;96515.38;6188931;23;20021;-82
2023/01/20 11:15:43;;;;;;;7.75;6.00;;;;;;;2.20;70.32;96524.47;6189542;23;20020;-82
2023/01/20 11:18:19;;;;;;;;;;;;;;;2.22;69.93;96518.25;6188568;23;20381;-81
2023/01/20 11:20:49;;;;;;;7.30;5.03;;;;;;;2.23;70.34;96526.78;6188615;23;19923;-81
2023/01/20 11:23:23;;;;;;;7.68;5.30;;;;;;;2.24;70.29;96528.41;6189226;23;20086;-82
2023/01/20 11:25:56;;;;;;;7.45;5.25;;;;;;;2.25;70.04;96519.75;6190360;23;20021;-82
2023/01/20 11:28:23;;;;;;;;;;;;;;;2.31;70.70;96521.78;6197817;23;20023;-82
2023/01/20 11:30:55;;;;;;;5.65;4.07;;;;;;;2.30;69.21;96527.09;6208020;23;19920;-80
2023/01/20 11:33:25;;;;;;;7.35;4.90;;;;;;;2.26;69.26;96529.09;6207726;23;20092;-85
2023/01/20 11:35:58;;;;;;;8.63;5.00;;;;;;;2.29;71.26;96533.16;6203063;23;20020;-83
2023/01/20 11:38:29;;;;;;;10.93;7.28;;;;;;;2.36;72.14;96527.38;6202442;23;20021;-82
2023/01/20 11:40:59;;;;;;;16.33;10.15;;;;;;;2.40;71.14;96531.28;6197134;23;20025;-84
2023/01/20 11:43:28;;;;;;;15.25;10.95;;;;;;;2.45;72.09;96534.28;6193266;23;20028;-81
2023/01/20 11:46:21;;;;;;;16.98;10.77;;;;;;;2.53;70.22;96532.81;6193180;23;20513;-83
2023/01/20 11:48:50;;;;;;;20.02;13.48;;;;;;;2.60;70.73;96534.72;6200808;23;20001;-83
2023/01/20 11:51:21;;;;;;;16.98;11.18;;;;;;;2.65;70.45;96532.56;6196237;23;20335;-82
2023/01/20 11:53:55;;;;;;;17.70;10.38;;;;;;;2.69;70.00;96533.13;6197655;23;20017;-81
2023/01/20 11:56:26;;;;;;;14.93;9.77;;;;;;;2.70;70.30;96532.16;6206811;23;20005;-84
2023/01/20 11:58:58;;;;;;;19.13;12.02;;;;;;;2.76;71.63;96533.41;6201873;23;20021;-81